Dades meteomassalio
Diari Summary for Febrer 8, 2017 Units:  English    Metric   Both
« Previous Day
Next Day »
Diari Semanal Mensual Anual Personalitzat
  Maxima: Minima: Mijana:
Temperatura: TemperatureC °F 4.6 °F 6.9 °F
Rosada: DewpointC °F 0.8 °F 2.2 °F
Humitat: Humidity % 51 % 72 %
Velocitat del vent: WindSpeedKMH mph 29.6 mph 48.1 mph
Racha vent: WindSpeedGustKMH mph - -
Vent:- - NW
Pressio: PressurehPa in 1020.2 in -
Pluja: 0.0 in    
Historical Graphs
 
 
Tabular Data for Febrer 8, 2017
Time Temperature Dew Point Pressure Wind Wind Speed Wind Gust Humidity Rainfall Rate (Hourly) solar Conditions
TemperatureC °F DewpointC °F PressurehPa in Calm     Humidity % HourlyPrecipMM in SolarRadiationWatts/m^2 W/m2 Conditions
00:01 8.1 °F 5.2 °F 1020.5 in NW 38.9 mph 38.9 mph 82 % 0.0 in 0.0 W/m2 RA
00:06 8.1 °F 5.2 °F 1020.9 in NW 31.5 mph 31.5 mph 82 % 0.0 in 0.0 W/m2 CLR
00:11 8.0 °F 4.9 °F 1020.9 in WNW 33.3 mph 33.3 mph 81 % 0.0 in 0.0 W/m2 CLR
00:16 8.0 °F 4.6 °F 1020.9 in NW 38.9 mph 38.9 mph 79 % 0.0 in 0.0 W/m2 CLR
00:21 7.9 °F 4.4 °F 1020.9 in NW 40.7 mph 40.7 mph 79 % 0.0 in 0.0 W/m2 CLR
00:26 7.8 °F 4.4 °F 1020.9 in NW 48.1 mph 48.1 mph 79 % 0.0 in 0.0 W/m2 CLR
00:31 7.7 °F 4.1 °F 1020.9 in WNW 48.1 mph 48.1 mph 78 % 0.0 in 0.0 W/m2 CLR
00:36 7.6 °F 4.2 °F 1020.9 in WNW 46.3 mph 46.3 mph 79 % 0.0 in 0.0 W/m2 CLR
00:41 7.5 °F 4.3 °F 1021.2 in WNW 42.6 mph 42.6 mph 80 % 0.0 in 0.0 W/m2 CLR
00:46 7.4 °F 4.2 °F 1021.2 in WNW 40.7 mph 40.7 mph 80 % 0.0 in 0.0 W/m2 CLR
00:51 7.3 °F 3.9 °F 1020.9 in WNW 42.6 mph 42.6 mph 79 % 0.0 in 0.0 W/m2 CLR
00:56 7.2 °F 3.8 °F 1020.9 in NW 42.6 mph 42.6 mph 79 % 0.0 in 0.0 W/m2 CLR
01:01 7.1 °F 3.9 °F 1020.9 in WNW 38.9 mph 38.9 mph 80 % 0.0 in 0.0 W/m2 CLR
01:06 7.0 °F 3.8 °F 1021.2 in WNW 42.6 mph 42.6 mph 80 % 0.0 in 0.0 W/m2 CLR
01:11 7.0 °F 3.6 °F 1021.2 in WNW 40.7 mph 40.7 mph 79 % 0.0 in 0.0 W/m2 CLR
01:16 6.9 °F 3.6 °F 1021.2 in WNW 44.4 mph 44.4 mph 79 % 0.0 in 0.0 W/m2 CLR
01:21 6.9 °F 3.5 °F 1021.2 in WNW 32.2 mph 32.2 mph 79 % 0.0 in 0.0 W/m2 CLR
01:26 6.9 °F 3.5 °F 1020.9 in WNW 33.3 mph 33.3 mph 79 % 0.0 in 0.0 W/m2 CLR
01:31 6.8 °F 3.3 °F 1020.9 in WNW 48.1 mph 48.1 mph 78 % 0.0 in 0.0 W/m2 CLR
01:36 6.8 °F 3.2 °F 1021.2 in WNW 42.6 mph 42.6 mph 78 % 0.0 in 0.0 W/m2 CLR
01:41 6.8 °F 3.0 °F 1021.2 in WNW 51.8 mph 51.8 mph 77 % 0.0 in 0.0 W/m2 CLR
01:46 6.8 °F 3.0 °F 1021.2 in WNW 42.6 mph 42.6 mph 77 % 0.0 in 0.0 W/m2 CLR
01:51 6.8 °F 3.0 °F 1021.2 in WNW 35.2 mph 35.2 mph 77 % 0.0 in 0.0 W/m2 CLR
01:56 6.7 °F 2.9 °F 1021.6 in WNW 31.5 mph 31.5 mph 77 % 0.0 in 0.0 W/m2 CLR
02:01 6.7 °F 2.9 °F 1021.2 in WNW 35.4 mph 35.4 mph 77 % 0.0 in 0.0 W/m2 CLR
02:06 6.7 °F 2.8 °F 1021.2 in WNW 50.0 mph 50.0 mph 76 % 0.0 in 0.0 W/m2 CLR
02:11 6.7 °F 2.7 °F 1021.2 in WNW 50.0 mph 50.0 mph 76 % 0.0 in 0.0 W/m2 CLR
02:16 6.6 °F 2.6 °F 1021.2 in WNW 37.0 mph 37.0 mph 76 % 0.0 in 0.0 W/m2 CLR
02:21 6.5 °F 2.8 °F 1020.9 in WNW 42.6 mph 42.6 mph 77 % 0.0 in 0.0 W/m2 CLR
02:26 6.4 °F 2.7 °F 1021.2 in WNW 59.2 mph 59.2 mph 77 % 0.0 in 0.0 W/m2 CLR
02:31 6.4 °F 2.7 °F 1020.9 in WNW 44.4 mph 44.4 mph 77 % 0.0 in 0.0 W/m2
02:36 6.3 °F 2.6 °F 1020.9 in WNW 44.4 mph 44.4 mph 77 % 0.0 in 0.0 W/m2 CLR
02:41 6.3 °F 2.4 °F 1020.9 in WNW 55.5 mph 55.5 mph 76 % 0.0 in 0.0 W/m2
02:46 6.3 °F 2.6 °F 1020.9 in NW 51.8 mph 51.8 mph 77 % 0.0 in 0.0 W/m2 CLR
02:51 6.2 °F 2.3 °F 1020.9 in NW 55.5 mph 55.5 mph 76 % 0.0 in 0.0 W/m2 CLR
02:56 6.3 °F 2.3 °F 1020.9 in WNW 51.8 mph 51.8 mph 76 % 0.0 in 0.0 W/m2
03:01 6.2 °F 2.3 °F 1020.9 in WNW 50.0 mph 50.0 mph 76 % 0.0 in 0.0 W/m2
03:06 6.1 °F 2.2 °F 1020.9 in NW 53.7 mph 53.7 mph 76 % 0.0 in 0.0 W/m2 CLR
03:11 6.1 °F 2.2 °F 1020.9 in NW 55.5 mph 55.5 mph 76 % 0.0 in 0.0 W/m2 CLR
03:16 6.1 °F 2.2 °F 1021.2 in NW 61.1 mph 61.1 mph 76 % 0.0 in 0.0 W/m2
03:21 6.0 °F 2.1 °F 1021.2 in WNW 59.2 mph 59.2 mph 76 % 0.0 in 0.0 W/m2
03:26 5.9 °F 2.0 °F 1021.2 in WNW 53.7 mph 53.7 mph 76 % 0.0 in 0.0 W/m2 CLR
03:31 5.8 °F 1.9 °F 1021.2 in WNW 62.9 mph 62.9 mph 76 % 0.0 in 0.0 W/m2 CLR
03:36 5.8 °F 1.7 °F 1021.6 in NW 61.1 mph 61.1 mph 75 % 0.0 in 0.0 W/m2 CLR
03:41 5.7 °F 1.6 °F 1021.6 in WNW 41.8 mph 41.8 mph 75 % 0.0 in 0.0 W/m2 CLR
03:46 5.7 °F 1.4 °F 1021.6 in NW 51.8 mph 51.8 mph 74 % 0.0 in 0.0 W/m2 CLR
03:51 5.6 °F 1.3 °F 1021.6 in NW 35.2 mph 37.0 mph 74 % 0.0 in 0.0 W/m2 CLR
03:56 5.7 °F 1.4 °F 1021.2 in NW 42.6 mph 42.6 mph 74 % 0.0 in 0.0 W/m2 CLR
04:02 5.7 °F 1.4 °F 1021.2 in WNW 53.7 mph 53.7 mph 74 % 0.0 in 0.0 W/m2 CLR
04:07 5.7 °F 1.4 °F 1020.9 in WNW 55.5 mph 55.5 mph 74 % 0.0 in 0.0 W/m2 CLR
04:12 5.6 °F 1.3 °F 1020.5 in WNW 55.5 mph 55.5 mph 74 % 0.0 in 0.0 W/m2 CLR
04:17 5.6 °F 1.3 °F 1020.5 in WNW 53.7 mph 53.7 mph 74 % 0.0 in 0.0 W/m2 CLR
04:22 5.6 °F 1.3 °F 1020.5 in WNW 51.8 mph 51.8 mph 74 % 0.0 in 0.0 W/m2 CLR
04:27 5.5 °F 1.4 °F 1020.5 in WNW 51.8 mph 51.8 mph 75 % 0.0 in 0.0 W/m2 CLR
04:32 5.5 °F 1.2 °F 1020.5 in WNW 48.1 mph 48.1 mph 74 % 0.0 in 0.0 W/m2 CLR
04:37 5.5 °F 1.2 °F 1020.5 in WNW 55.5 mph 55.5 mph 74 % 0.0 in 0.0 W/m2 CLR
04:42 5.4 °F 1.2 °F 1020.5 in NW 48.1 mph 48.1 mph 74 % 0.0 in 0.0 W/m2 CLR
04:47 5.4 °F 1.3 °F 1020.5 in NW 45.1 mph 45.1 mph 75 % 0.0 in 0.0 W/m2 CLR
04:52 5.3 °F 1.3 °F 1020.5 in NW 53.7 mph 53.7 mph 75 % 0.0 in 0.0 W/m2 CLR
04:57 5.3 °F 1.2 °F 1020.5 in NW 40.2 mph 40.2 mph 75 % 0.0 in 0.0 W/m2 CLR
05:02 5.3 °F 1.2 °F 1020.5 in NW 35.2 mph 35.2 mph 75 % 0.0 in 0.0 W/m2 CLR
05:07 5.2 °F 1.2 °F 1020.2 in NW 46.7 mph 46.7 mph 75 % 0.0 in 0.0 W/m2 CLR
05:12 5.2 °F 1.3 °F 1020.5 in NW 42.6 mph 42.6 mph 76 % 0.0 in 0.0 W/m2 CLR
05:17 5.2 °F 1.3 °F 1020.5 in NW 55.5 mph 55.5 mph 76 % 0.0 in 0.0 W/m2
05:22 5.2 °F 1.3 °F 1020.5 in NW 50.0 mph 50.0 mph 76 % 0.0 in 0.0 W/m2 CLR
05:27 5.2 °F 1.3 °F 1020.9 in NW 44.4 mph 44.4 mph 76 % 0.0 in 0.0 W/m2 CLR
05:32 5.2 °F 1.3 °F 1020.9 in NW 46.3 mph 46.3 mph 76 % 0.0 in 0.0 W/m2 CLR
05:37 5.2 °F 1.3 °F 1020.9 in NW 38.9 mph 38.9 mph 76 % 0.0 in 0.0 W/m2 CLR
05:42 5.2 °F 1.3 °F 1020.9 in WNW 38.9 mph 38.9 mph 76 % 0.0 in 0.0 W/m2
05:47 5.1 °F 1.2 °F 1020.9 in NW 44.4 mph 44.4 mph 76 % 0.0 in 0.0 W/m2 CLR
05:52 5.1 °F 1.2 °F 1020.9 in NW 50.0 mph 50.0 mph 76 % 0.0 in 0.0 W/m2 CLR
05:57 5.1 °F 1.3 °F 1020.9 in NW 53.7 mph 53.7 mph 77 % 0.0 in 0.0 W/m2 CLR
06:02 5.1 °F 1.2 °F 1020.9 in NW 53.7 mph 53.7 mph 76 % 0.0 in 0.0 W/m2 CLR
06:07 5.0 °F 1.3 °F 1020.5 in WNW 53.7 mph 53.7 mph 77 % 0.0 in 0.0 W/m2 CLR
06:12 4.9 °F 1.2 °F 1020.9 in NW 37.0 mph 37.0 mph 77 % 0.0 in 0.0 W/m2 CLR
06:17 4.9 °F 1.4 °F 1020.9 in NW 40.7 mph 40.7 mph 78 % 0.0 in 0.0 W/m2 CLR
06:22 4.9 °F 1.4 °F 1020.5 in WNW 42.6 mph 42.6 mph 78 % 0.0 in 0.0 W/m2 CLR
06:27 4.9 °F 1.4 °F 1020.5 in WNW 55.5 mph 55.5 mph 78 % 0.0 in 0.0 W/m2
06:32 4.8 °F 1.3 °F 1020.2 in WNW 57.4 mph 57.4 mph 78 % 0.0 in 0.0 W/m2 CLR
06:37 4.8 °F 1.3 °F 1020.5 in NW 50.0 mph 50.0 mph 78 % 0.0 in 0.0 W/m2
06:42 4.8 °F 1.3 °F 1020.5 in NW 42.6 mph 42.6 mph 78 % 0.0 in 0.0 W/m2 CLR
06:47 4.7 °F 1.2 °F 1020.5 in NW 57.4 mph 57.4 mph 78 % 0.0 in 0.0 W/m2 CLR
06:52 4.8 °F 1.3 °F 1020.5 in WNW 53.7 mph 53.7 mph 78 % 0.0 in 0.0 W/m2 CLR
06:57 4.8 °F 1.3 °F 1020.5 in NW 46.3 mph 46.3 mph 78 % 0.0 in 0.0 W/m2 CLR
07:02 4.8 °F 1.3 °F 1020.5 in WNW 42.6 mph 42.6 mph 78 % 0.0 in 0.0 W/m2 CLR
07:07 4.8 °F 1.3 °F 1020.5 in NW 55.5 mph 55.5 mph 78 % 0.0 in 0.0 W/m2 CLR
07:12 4.8 °F 1.3 °F 1020.9 in NW 49.9 mph 49.9 mph 78 % 0.0 in 0.0 W/m2 CLR
07:17 4.8 °F 1.3 °F 1020.9 in NW 59.5 mph 59.5 mph 78 % 0.0 in 0.0 W/m2 CLR
07:22 4.8 °F 1.3 °F 1020.9 in NW 42.6 mph 42.6 mph 78 % 0.0 in 0.0 W/m2 CLR
07:27 4.7 °F 1.2 °F 1020.9 in NW 55.5 mph 55.5 mph 78 % 0.0 in 0.0 W/m2 CLR
07:32 4.7 °F 1.2 °F 1021.2 in NW 57.4 mph 57.4 mph 78 % 0.0 in 0.0 W/m2 CLR
07:37 4.7 °F 1.2 °F 1021.2 in NW 44.4 mph 44.4 mph 78 % 0.0 in 0.0 W/m2 CLR
07:42 4.7 °F 1.4 °F 1021.6 in NW 33.3 mph 33.3 mph 79 % 0.0 in 0.0 W/m2 CLR
07:47 4.7 °F 1.3 °F 1021.6 in NW 43.4 mph 43.4 mph 79 % 0.0 in 0.0 W/m2 CLR
07:52 4.7 °F 1.3 °F 1021.6 in NW 32.2 mph 32.2 mph 79 % 0.0 in 0.0 W/m2 CLR
07:57 4.6 °F 1.3 °F 1021.6 in NW 53.7 mph 53.7 mph 79 % 0.0 in 0.0 W/m2 CLR
08:02 4.6 °F 1.3 °F 1021.6 in NW 42.6 mph 42.6 mph 79 % 0.0 in 0.0 W/m2 OVC
08:07 4.6 °F 1.2 °F 1021.6 in WNW 53.7 mph 53.7 mph 79 % 0.0 in 0.0 W/m2 OVC
08:12 4.7 °F 1.3 °F 1021.6 in WNW 44.4 mph 44.4 mph 79 % 0.0 in 5.0 W/m2 OVC
08:17 4.6 °F 1.3 °F 1021.9 in NW 38.9 mph 38.9 mph 79 % 0.0 in 7.0 W/m2 BKN
08:22 4.6 °F 1.3 °F 1021.9 in NW 62.9 mph 62.9 mph 79 % 0.0 in 9.0 W/m2 BKN
08:27 4.6 °F 1.4 °F 1021.9 in WNW 40.7 mph 40.7 mph 80 % 0.0 in 11.0 W/m2 BKN
08:32 4.6 °F 1.4 °F 1022.2 in NW 53.7 mph 53.7 mph 80 % 0.0 in 12.0 W/m2 BKN
08:37 4.6 °F 1.4 °F 1021.9 in NW 55.5 mph 55.5 mph 80 % 0.0 in 18.0 W/m2 BKN
08:42 4.6 °F 1.6 °F 1022.2 in NW 55.5 mph 55.5 mph 81 % 0.0 in 26.0 W/m2 BKN
08:47 4.6 °F 1.4 °F 1022.6 in NW 42.6 mph 42.6 mph 80 % 0.0 in 40.0 W/m2 SCT
08:52 4.7 °F 1.6 °F 1022.6 in NW 40.2 mph 40.2 mph 80 % 0.0 in 42.0 W/m2 BKN
08:57 4.8 °F 1.6 °F 1022.6 in NW 55.5 mph 55.5 mph 80 % 0.0 in 67.0 W/m2 FEW
09:02 4.9 °F 1.6 °F 1022.6 in NW 51.8 mph 51.8 mph 79 % 0.0 in 72.0 W/m2 FEW
09:07 4.9 °F 1.6 °F 1022.6 in NW 51.8 mph 51.8 mph 79 % 0.0 in 69.0 W/m2 FEW
09:12 5.0 °F 1.8 °F 1022.6 in NW 46.7 mph 46.7 mph 80 % 0.0 in 74.0 W/m2 FEW
09:17 5.0 °F 1.8 °F 1022.6 in NW 55.5 mph 55.5 mph 80 % 0.0 in 104.0 W/m2 FEW
09:22 5.0 °F 1.8 °F 1022.9 in NW 61.1 mph 61.1 mph 80 % 0.0 in 104.0 W/m2 FEW
09:23 5.0 °F 1.8 °F 1022.6 in NW 61.1 mph 61.1 mph 80 % 0.0 in 104.0 W/m2 FEW
09:28 5.0 °F 1.8 °F 1022.9 in NW 46.3 mph 46.3 mph 80 % 0.0 in 130.0 W/m2 CLR
09:33 5.1 °F 1.9 °F 1022.9 in NW 51.8 mph 51.8 mph 80 % 0.0 in 149.0 W/m2 CLR
09:38 5.1 °F 1.9 °F 1022.9 in NW 48.1 mph 48.1 mph 80 % 0.0 in 111.0 W/m2 CLR
09:43 5.1 °F 2.1 °F 1022.9 in NW 50.0 mph 50.0 mph 81 % 0.0 in 118.0 W/m2 CLR
09:48 5.1 °F 2.1 °F 1022.9 in NW 40.7 mph 40.7 mph 81 % 0.0 in 123.0 W/m2 CLR
09:53 5.2 °F 2.2 °F 1022.6 in NW 48.1 mph 48.1 mph 81 % 0.0 in 192.0 W/m2 CLR
09:58 5.4 °F 2.2 °F 1022.9 in NW 55.5 mph 55.5 mph 80 % 0.0 in 167.0 W/m2 CLR
10:03 5.3 °F 2.2 °F 1022.9 in NW 42.6 mph 42.6 mph 80 % 0.0 in 450.0 W/m2 CLR
10:08 5.5 °F 2.3 °F 1022.9 in NW 55.5 mph 55.5 mph 80 % 0.0 in 218.0 W/m2 CLR
10:13 5.6 °F 2.4 °F 1022.6 in NW 62.9 mph 62.9 mph 80 % 0.0 in 211.0 W/m2 CLR
10:18 5.6 °F 2.4 °F 1022.9 in NW 50.0 mph 50.0 mph 80 % 0.0 in 274.0 W/m2 CLR
10:23 5.7 °F 2.6 °F 1022.6 in NW 50.0 mph 50.0 mph 80 % 0.0 in 429.0 W/m2 CLR
10:28 5.9 °F 2.7 °F 1022.6 in NW 35.2 mph 35.2 mph 80 % 0.0 in 299.0 W/m2 CLR
10:33 6.0 °F 2.6 °F 1022.9 in NW 57.4 mph 57.4 mph 79 % 0.0 in 396.0 W/m2 CLR
10:38 6.1 °F 2.6 °F 1022.6 in NW 46.3 mph 46.3 mph 78 % 0.0 in 401.0 W/m2 CLR
10:43 6.2 °F 2.5 °F 1022.6 in NW 55.5 mph 55.5 mph 77 % 0.0 in 427.0 W/m2 CLR
10:48 6.4 °F 2.8 °F 1022.9 in NW 48.1 mph 48.1 mph 78 % 0.0 in 471.0 W/m2 CLR
10:53 6.6 °F 2.8 °F 1022.9 in NNW 55.5 mph 55.5 mph 77 % 0.0 in 454.0 W/m2 CLR
10:58 6.6 °F 2.7 °F 1022.6 in NNW 55.5 mph 55.5 mph 76 % 0.0 in 429.0 W/m2 CLR
11:03 6.8 °F 3.0 °F 1022.6 in NW 42.6 mph 42.6 mph 77 % 0.0 in 434.0 W/m2 CLR
11:08 6.9 °F 3.0 °F 1022.6 in NW 48.1 mph 48.1 mph 76 % 0.0 in 441.0 W/m2 CLR
11:13 7.1 °F 3.0 °F 1022.6 in NW 55.5 mph 55.5 mph 75 % 0.0 in 455.0 W/m2 CLR
11:18 7.3 °F 2.8 °F 1022.6 in NW 53.7 mph 53.7 mph 73 % 0.0 in 464.0 W/m2 CLR
11:23 7.3 °F 2.8 °F 1022.6 in NW 51.8 mph 51.8 mph 73 % 0.0 in 468.0 W/m2 CLR
11:28 7.4 °F 2.9 °F 1022.6 in NW 55.5 mph 55.5 mph 73 % 0.0 in 485.0 W/m2 CLR
11:33 7.6 °F 3.1 °F 1022.6 in NW 46.3 mph 46.3 mph 73 % 0.0 in 522.0 W/m2 CLR
11:38 7.8 °F 3.2 °F 1022.6 in NW 38.9 mph 38.9 mph 73 % 0.0 in 538.0 W/m2 CLR
11:43 7.9 °F 2.8 °F 1022.6 in NW 55.5 mph 55.5 mph 70 % 0.0 in 508.0 W/m2 CLR
11:48 7.9 °F 2.8 °F 1022.6 in NW 57.4 mph 57.4 mph 70 % 0.0 in 515.0 W/m2 CLR
11:53 8.1 °F 2.9 °F 1022.9 in NW 44.4 mph 44.4 mph 70 % 0.0 in 554.0 W/m2 CLR
11:58 8.2 °F 2.9 °F 1022.9 in NW 48.3 mph 48.3 mph 69 % 0.0 in 536.0 W/m2 CLR
12:03 8.1 °F 2.8 °F 1022.9 in NNW 40.7 mph 40.7 mph 69 % 0.0 in 540.0 W/m2 CLR
12:08 8.2 °F 2.9 °F 1022.6 in NNW 61.1 mph 61.1 mph 69 % 0.0 in 540.0 W/m2 CLR
12:13 8.2 °F 2.8 °F 1022.6 in NW 46.3 mph 46.3 mph 69 % 0.0 in 573.0 W/m2 CLR
12:18 8.4 °F 3.0 °F 1022.6 in NW 59.2 mph 59.2 mph 69 % 0.0 in 575.0 W/m2 CLR
12:23 8.5 °F 2.9 °F 1022.6 in NW 55.5 mph 55.5 mph 68 % 0.0 in 575.0 W/m2 CLR
12:28 8.6 °F 2.8 °F 1022.6 in NW 51.8 mph 51.8 mph 67 % 0.0 in 561.0 W/m2 CLR
12:33 8.6 °F 2.8 °F 1022.6 in NW 35.2 mph 35.2 mph 67 % 0.0 in 578.0 W/m2 CLR
12:38 8.7 °F 2.9 °F 1022.2 in NW 57.4 mph 57.4 mph 67 % 0.0 in 570.0 W/m2 CLR
12:43 8.7 °F 3.1 °F 1022.2 in NW 55.5 mph 55.5 mph 68 % 0.0 in 563.0 W/m2 CLR
12:48 8.6 °F 2.8 °F 1022.2 in NW 66.6 mph 66.6 mph 67 % 0.0 in 564.0 W/m2 CLR
12:53 8.8 °F 3.0 °F 1022.2 in NW 50.0 mph 50.0 mph 67 % 0.0 in 563.0 W/m2 CLR
12:58 8.8 °F 2.6 °F 1022.2 in NW 55.5 mph 55.5 mph 65 % 0.0 in 563.0 W/m2 CLR
13:03 9.1 °F 2.8 °F 1021.9 in NW 61.1 mph 61.1 mph 65 % 0.0 in 566.0 W/m2 CLR
13:08 8.9 °F 2.5 °F 1021.9 in NW 53.7 mph 53.7 mph 64 % 0.0 in 566.0 W/m2 CLR
13:13 9.1 °F 3.1 °F 1021.9 in NNW 46.7 mph 46.7 mph 66 % 0.0 in 566.0 W/m2 CLR
13:18 9.2 °F 2.5 °F 1021.9 in NW 59.2 mph 59.2 mph 63 % 0.0 in 566.0 W/m2 CLR
13:23 9.2 °F 2.3 °F 1022.2 in NW 55.5 mph 55.5 mph 62 % 0.0 in 568.0 W/m2 CLR
13:28 9.5 °F 2.6 °F 1021.9 in NNW 43.4 mph 43.4 mph 62 % 0.0 in 566.0 W/m2 CLR
13:33 9.6 °F 2.2 °F 1021.9 in NNW 53.7 mph 53.7 mph 60 % 0.0 in 564.0 W/m2 CLR
13:38 9.6 °F 2.2 °F 1022.2 in NNW 61.1 mph 61.1 mph 60 % 0.0 in 563.0 W/m2 CLR
13:43 9.7 °F 2.7 °F 1021.9 in NNW 42.6 mph 42.6 mph 62 % 0.0 in 563.0 W/m2 CLR
13:48 9.6 °F 2.0 °F 1022.2 in NNW 55.5 mph 55.5 mph 59 % 0.0 in 566.0 W/m2 CLR
13:53 9.6 °F 2.2 °F 1022.2 in NNW 50.0 mph 50.0 mph 60 % 0.0 in 559.0 W/m2 CLR
13:58 9.6 °F 2.4 °F 1022.2 in NNW 53.7 mph 53.7 mph 61 % 0.0 in 555.0 W/m2 CLR
14:03 9.6 °F 2.4 °F 1022.2 in NW 66.0 mph 66.0 mph 61 % 0.0 in 548.0 W/m2 CLR
14:08 9.5 °F 2.1 °F 1022.2 in NNW 64.8 mph 64.8 mph 60 % 0.0 in 547.0 W/m2 CLR
14:13 9.7 °F 2.3 °F 1021.9 in NW 44.4 mph 44.4 mph 60 % 0.0 in 543.0 W/m2 CLR
14:18 9.9 °F 2.2 °F 1021.9 in NNW 57.4 mph 57.4 mph 59 % 0.0 in 538.0 W/m2 CLR
14:23 9.8 °F 2.2 °F 1021.9 in NW 55.5 mph 55.5 mph 59 % 0.0 in 534.0 W/m2 CLR
14:28 9.9 °F 2.2 °F 1021.9 in NW 57.4 mph 57.4 mph 59 % 0.0 in 526.0 W/m2 CLR
14:33 9.8 °F 2.6 °F 1021.9 in NW 51.8 mph 51.8 mph 61 % 0.0 in 520.0 W/m2 CLR
14:39 9.9 °F 2.2 °F 1021.6 in NW 66.6 mph 66.6 mph 59 % 0.0 in 513.0 W/m2 CLR
14:43 9.8 °F 2.2 °F 1021.6 in NW 48.1 mph 48.1 mph 59 % 0.0 in 508.0 W/m2 CLR
14:49 10.0 °F 1.9 °F 1021.9 in NW 57.4 mph 57.4 mph 57 % 0.0 in 501.0 W/m2 CLR
14:54 10.2 °F 2.5 °F 1021.6 in NW 37.0 mph 37.0 mph 59 % 0.0 in 494.0 W/m2 CLR
14:59 10.2 °F 1.8 °F 1021.9 in NW 62.8 mph 62.8 mph 56 % 0.0 in 489.0 W/m2 CLR
15:04 10.2 °F 1.5 °F 1021.6 in NW 53.7 mph 53.7 mph 55 % 0.0 in 478.0 W/m2 CLR
15:09 10.2 °F 1.3 °F 1021.9 in NW 51.8 mph 51.8 mph 54 % 0.0 in 469.0 W/m2 CLR
15:14 10.2 °F 0.8 °F 1021.9 in NW 55.5 mph 55.5 mph 52 % 0.0 in 462.0 W/m2 CLR
15:19 10.3 °F 1.2 °F 1021.6 in NW 42.6 mph 42.6 mph 53 % 0.0 in 452.0 W/m2 CLR
15:24 10.4 °F 0.9 °F 1021.9 in NW 55.5 mph 55.5 mph 52 % 0.0 in 445.0 W/m2 CLR
15:29 10.5 °F 0.8 °F 1021.6 in NW 57.4 mph 57.4 mph 51 % 0.0 in 431.0 W/m2 CLR
15:34 10.6 °F 0.9 °F 1021.6 in NW 48.1 mph 48.1 mph 51 % 0.0 in 420.0 W/m2 CLR
15:39 10.7 °F 1.2 °F 1021.9 in NW 38.9 mph 38.9 mph 52 % 0.0 in 411.0 W/m2 CLR
15:44 10.6 °F 1.4 °F 1021.6 in NW 51.8 mph 51.8 mph 53 % 0.0 in 399.0 W/m2 CLR
15:49 10.4 °F 1.4 °F 1021.6 in NW 44.4 mph 44.4 mph 54 % 0.0 in 392.0 W/m2 CLR
15:54 10.3 °F 1.6 °F 1021.9 in NW 64.8 mph 64.8 mph 55 % 0.0 in 376.0 W/m2 CLR
15:59 10.2 °F 2.1 °F 1021.9 in NW 44.4 mph 44.4 mph 57 % 0.0 in 373.0 W/m2 CLR
16:04 10.2 °F 2.3 °F 1021.9 in NW 35.2 mph 35.2 mph 58 % 0.0 in 359.0 W/m2 CLR
16:09 10.1 °F 2.2 °F 1021.9 in NW 50.0 mph 50.0 mph 58 % 0.0 in 364.0 W/m2 CLR
16:14 10.1 °F 2.2 °F 1021.9 in NW 40.7 mph 40.7 mph 58 % 0.0 in 330.0 W/m2 CLR
16:19 9.8 °F 2.2 °F 1021.9 in NW 53.7 mph 53.7 mph 59 % 0.0 in 339.0 W/m2 CLR
16:24 9.7 °F 2.3 °F 1021.9 in NNW 37.0 mph 37.0 mph 60 % 0.0 in 311.0 W/m2 CLR
16:29 9.9 °F 2.5 °F 1021.9 in NW 50.0 mph 50.0 mph 60 % 0.0 in 295.0 W/m2 CLR
16:34 9.8 °F 2.2 °F 1021.9 in NW 38.9 mph 38.9 mph 59 % 0.0 in 276.0 W/m2 CLR
16:39 9.8 °F 2.1 °F 1022.2 in NW 50.0 mph 50.0 mph 59 % 0.0 in 260.0 W/m2 CLR
16:44 9.6 °F 1.7 °F 1021.9 in NW 53.7 mph 53.7 mph 58 % 0.0 in 246.0 W/m2 CLR
16:49 9.5 °F 1.9 °F 1021.9 in NW 61.1 mph 61.1 mph 59 % 0.0 in 230.0 W/m2 CLR
16:54 9.4 °F 2.0 °F 1021.9 in NW 53.7 mph 53.7 mph 60 % 0.0 in 209.0 W/m2 CLR
16:59 9.3 °F 1.7 °F 1021.9 in NW 48.1 mph 48.1 mph 59 % 0.0 in 193.0 W/m2 CLR
17:04 9.3 °F 1.9 °F 1021.9 in NW 50.0 mph 50.0 mph 60 % 0.0 in 176.0 W/m2 CLR
17:09 9.3 °F 1.9 °F 1021.9 in NW 46.7 mph 46.7 mph 60 % 0.0 in 162.0 W/m2 CLR
17:14 9.3 °F 2.1 °F 1021.9 in NW 41.8 mph 41.8 mph 61 % 0.0 in 141.0 W/m2 CLR
17:19 9.2 °F 2.1 °F 1021.9 in NW 38.9 mph 38.9 mph 61 % 0.0 in 127.0 W/m2 CLR
17:24 9.1 °F 2.2 °F 1021.9 in NW 44.4 mph 44.4 mph 62 % 0.0 in 109.0 W/m2 CLR
17:29 9.0 °F 1.7 °F 1021.9 in NW 50.0 mph 50.0 mph 60 % 0.0 in 97.0 W/m2 CLR
17:34 8.9 °F 1.6 °F 1021.6 in NW 55.5 mph 55.5 mph 60 % 0.0 in 79.0 W/m2 FEW
17:39 8.8 °F 1.7 °F 1021.9 in NW 59.2 mph 59.2 mph 61 % 0.0 in 28.0 W/m2 BKN
17:44 8.7 °F 1.6 °F 1021.9 in NW 46.3 mph 46.3 mph 61 % 0.0 in 46.0 W/m2 SCT
17:49 8.7 °F 2.0 °F 1021.9 in NW 48.1 mph 48.1 mph 63 % 0.0 in 21.0 W/m2 BKN
17:54 8.6 °F 2.3 °F 1021.9 in NW 51.5 mph 51.5 mph 65 % 0.0 in 19.0 W/m2 BKN
17:59 8.4 °F 2.4 °F 1021.9 in NW 53.7 mph 53.7 mph 66 % 0.0 in 18.0 W/m2 BKN
18:04 8.3 °F 2.6 °F 1022.2 in NW 49.9 mph 49.9 mph 67 % 0.0 in 14.0 W/m2 BKN
18:09 8.2 °F 2.6 °F 1021.9 in NW 50.0 mph 50.0 mph 68 % 0.0 in 12.0 W/m2 BKN
18:14 8.1 °F 2.7 °F 1022.2 in NW 48.1 mph 48.1 mph 69 % 0.0 in 9.0 W/m2 BKN
18:19 7.9 °F 2.4 °F 1022.2 in NW 42.6 mph 42.6 mph 68 % 0.0 in 7.0 W/m2 BKN
18:24 7.9 °F 2.3 °F 1022.2 in NW 53.7 mph 53.7 mph 68 % 0.0 in 5.0 W/m2 OVC
18:29 7.9 °F 2.3 °F 1022.2 in NW 55.5 mph 55.5 mph 68 % 0.0 in 0.0 W/m2 OVC
18:34 7.8 °F 2.2 °F 1022.6 in NW 48.1 mph 48.1 mph 68 % 0.0 in 0.0 W/m2 OVC
18:39 7.7 °F 2.2 °F 1022.6 in NW 53.7 mph 53.7 mph 68 % 0.0 in 0.0 W/m2 CLR
18:44 7.6 °F 2.0 °F 1022.6 in NW 44.4 mph 44.4 mph 68 % 0.0 in 0.0 W/m2 CLR
18:49 7.5 °F 2.2 °F 1022.6 in NW 42.6 mph 42.6 mph 69 % 0.0 in 0.0 W/m2 CLR
18:54 7.4 °F 2.3 °F 1022.6 in NW 50.0 mph 50.0 mph 70 % 0.0 in 0.0 W/m2 CLR
18:59 7.4 °F 2.4 °F 1022.9 in NW 44.4 mph 44.4 mph 71 % 0.0 in 0.0 W/m2 CLR
19:04 7.3 °F 2.4 °F 1022.9 in NW 57.4 mph 57.4 mph 71 % 0.0 in 0.0 W/m2
19:09 7.2 °F 2.5 °F 1022.9 in NW 46.3 mph 46.3 mph 72 % 0.0 in 0.0 W/m2 CLR
19:14 7.2 °F 2.3 °F 1022.9 in NW 55.5 mph 55.5 mph 71 % 0.0 in 0.0 W/m2
19:19 7.2 °F 2.3 °F 1022.9 in NW 48.1 mph 48.1 mph 71 % 0.0 in 0.0 W/m2 CLR
19:24 7.1 °F 2.2 °F 1023.2 in NW 51.8 mph 51.8 mph 71 % 0.0 in 0.0 W/m2 CLR
19:29 7.1 °F 2.2 °F 1023.2 in NW 46.7 mph 46.7 mph 71 % 0.0 in 0.0 W/m2 CLR
19:34 7.0 °F 2.1 °F 1023.2 in NW 46.3 mph 46.3 mph 71 % 0.0 in 0.0 W/m2 CLR
19:39 6.9 °F 2.1 °F 1023.6 in NW 55.5 mph 55.5 mph 71 % 0.0 in 0.0 W/m2 CLR
19:44 6.9 °F 2.1 °F 1023.6 in NW 51.5 mph 51.5 mph 71 % 0.0 in 0.0 W/m2 CLR
19:49 6.9 °F 2.0 °F 1023.6 in NW 53.7 mph 53.7 mph 71 % 0.0 in 0.0 W/m2 CLR
19:54 6.8 °F 1.9 °F 1023.6 in NW 48.1 mph 48.1 mph 71 % 0.0 in 0.0 W/m2 CLR
19:59 6.8 °F 1.9 °F 1023.9 in NW 46.3 mph 46.3 mph 71 % 0.0 in 0.0 W/m2 CLR
20:04 6.8 °F 1.7 °F 1023.9 in NW 45.1 mph 45.1 mph 70 % 0.0 in 0.0 W/m2 CLR
20:09 6.8 °F 1.7 °F 1023.9 in NW 51.8 mph 51.8 mph 70 % 0.0 in 0.0 W/m2 CLR
20:14 6.8 °F 1.9 °F 1023.9 in NW 51.8 mph 51.8 mph 71 % 0.0 in 0.0 W/m2 CLR
20:19 6.7 °F 1.8 °F 1023.9 in NW 54.7 mph 54.7 mph 71 % 0.0 in 0.0 W/m2 CLR
20:24 6.7 °F 1.8 °F 1024.3 in NW 50.0 mph 50.0 mph 71 % 0.0 in 0.0 W/m2 CLR
20:29 6.7 °F 1.8 °F 1024.3 in NW 38.9 mph 38.9 mph 71 % 0.0 in 0.0 W/m2 CLR
20:34 6.6 °F 1.9 °F 1024.3 in NW 37.0 mph 37.0 mph 72 % 0.0 in 0.0 W/m2 CLR
20:39 6.6 °F 2.1 °F 1024.3 in NW 46.3 mph 46.3 mph 73 % 0.0 in 0.0 W/m2 CLR
20:44 6.5 °F 2.2 °F 1023.9 in NW 53.7 mph 53.7 mph 74 % 0.0 in 0.0 W/m2 CLR
20:49 6.4 °F 2.3 °F 1023.9 in NW 46.7 mph 46.7 mph 75 % 0.0 in 0.0 W/m2 CLR
20:54 6.4 °F 2.3 °F 1024.3 in NNW 46.3 mph 46.3 mph 75 % 0.0 in 0.0 W/m2 CLR
20:59 6.4 °F 2.3 °F 1024.3 in NNW 53.7 mph 53.7 mph 75 % 0.0 in 0.0 W/m2 CLR
21:04 6.3 °F 2.2 °F 1024.3 in NW 42.6 mph 42.6 mph 75 % 0.0 in 0.0 W/m2 CLR
21:09 6.4 °F 2.3 °F 1024.3 in NNW 53.7 mph 53.7 mph 75 % 0.0 in 0.0 W/m2 CLR
21:14 6.3 °F 2.2 °F 1024.3 in NNW 45.1 mph 45.1 mph 75 % 0.0 in 0.0 W/m2 CLR
21:20 6.2 °F 2.1 °F 1024.3 in NNW 57.4 mph 57.4 mph 75 % 0.0 in 0.0 W/m2
21:22 6.2 °F 2.1 °F 1024.3 in NNW 44.4 mph 44.4 mph 75 % 0.0 in 0.0 W/m2 CLR
21:27 6.2 °F 2.1 °F 1024.3 in NW 44.4 mph 44.4 mph 75 % 0.0 in 0.0 W/m2 CLR
21:32 6.1 °F 2.2 °F 1024.3 in NW 51.8 mph 51.8 mph 76 % 0.0 in 0.0 W/m2 CLR
21:37 6.1 °F 2.2 °F 1024.3 in NW 44.4 mph 44.4 mph 76 % 0.0 in 0.0 W/m2 CLR
21:42 6.0 °F 2.1 °F 1024.3 in NW 44.4 mph 44.4 mph 76 % 0.0 in 0.0 W/m2 CLR
21:47 6.0 °F 2.1 °F 1024.3 in NW 44.4 mph 44.4 mph 76 % 0.0 in 0.0 W/m2 CLR
21:52 5.9 °F 2.1 °F 1024.6 in NW 48.3 mph 48.3 mph 76 % 0.0 in 0.0 W/m2 CLR
21:57 5.9 °F 2.2 °F 1024.6 in NW 38.9 mph 38.9 mph 77 % 0.0 in 0.0 W/m2 CLR
22:02 5.8 °F 2.1 °F 1024.6 in NW 40.7 mph 40.7 mph 77 % 0.0 in 0.0 W/m2 CLR
22:07 5.8 °F 2.1 °F 1024.6 in NW 42.6 mph 42.6 mph 77 % 0.0 in 0.0 W/m2 CLR
22:12 5.8 °F 2.1 °F 1024.6 in NW 37.0 mph 37.0 mph 77 % 0.0 in 0.0 W/m2 CLR
22:17 5.8 °F 2.1 °F 1024.9 in NW 37.0 mph 37.0 mph 77 % 0.0 in 0.0 W/m2 CLR
22:22 5.7 °F 2.0 °F 1024.6 in NW 40.2 mph 40.2 mph 77 % 0.0 in 0.0 W/m2 CLR
22:27 5.8 °F 2.1 °F 1024.6 in NW 48.1 mph 48.1 mph 77 % 0.0 in 0.0 W/m2 CLR
22:32 5.8 °F 2.1 °F 1024.9 in NW 44.4 mph 44.4 mph 77 % 0.0 in 0.0 W/m2 CLR
22:37 5.8 °F 2.1 °F 1024.9 in NW 45.1 mph 45.1 mph 77 % 0.0 in 0.0 W/m2 CLR
22:42 5.7 °F 2.2 °F 1024.9 in NW 40.7 mph 40.7 mph 78 % 0.0 in 0.0 W/m2 CLR
22:47 5.8 °F 2.1 °F 1024.9 in NW 38.9 mph 38.9 mph 77 % 0.0 in 0.0 W/m2 CLR
22:52 5.7 °F 2.0 °F 1024.9 in NW 40.7 mph 40.7 mph 77 % 0.0 in 0.0 W/m2 CLR
22:57 5.7 °F 2.0 °F 1024.9 in NW 31.5 mph 31.5 mph 77 % 0.0 in 0.0 W/m2 CLR
23:02 5.7 °F 2.0 °F 1024.9 in NW 35.2 mph 35.2 mph 77 % 0.0 in 0.0 W/m2 CLR
23:07 5.7 °F 2.2 °F 1024.9 in NW 40.7 mph 40.7 mph 78 % 0.0 in 0.0 W/m2 CLR
23:08 5.7 °F 2.2 °F 1024.9 in NW 40.7 mph 40.7 mph 78 % 0.0 in 0.0 W/m2 CLR
23:13 5.7 °F 2.0 °F 1024.9 in NW 42.6 mph 42.6 mph 77 % 0.0 in 0.0 W/m2 CLR
23:18 5.7 °F 2.2 °F 1024.9 in NW 35.2 mph 35.2 mph 78 % 0.0 in 0.0 W/m2 CLR
23:23 5.7 °F 2.1 °F 1024.9 in NW 38.9 mph 38.9 mph 78 % 0.0 in 0.0 W/m2 CLR
23:28 5.6 °F 2.1 °F 1024.6 in NW 40.7 mph 40.7 mph 78 % 0.0 in 0.0 W/m2 CLR
23:33 5.6 °F 2.1 °F 1024.6 in NW 29.6 mph 29.6 mph 78 % 0.0 in 0.0 W/m2 CLR
23:38 5.6 °F 2.0 °F 1024.6 in NW 35.2 mph 35.2 mph 78 % 0.0 in 0.0 W/m2 CLR
23:43 5.6 °F 2.0 °F 1024.6 in NW 42.6 mph 42.6 mph 78 % 0.0 in 0.0 W/m2 CLR
23:48 5.5 °F 1.9 °F 1024.6 in NW 37.0 mph 37.0 mph 78 % 0.0 in 0.0 W/m2 CLR
23:53 5.5 °F 1.9 °F 1024.6 in NW 32.2 mph 32.2 mph 78 % 0.0 in 0.0 W/m2 CLR
23:58 5.5 °F 2.2 °F 1024.6 in NW 42.6 mph 42.6 mph 79 % 0.0 in 0.0 W/m2 CLR
Lo Temps de Massalio
Compliments of Weather Underground - 1.25 mb